METAR Data
IDs: Format: Raw Decoded Include TAF

Data at: 0250 UTC 03 Jul 2022

METAR for:KBTP (Butler Cnty/Scholter, PA, US)
Text:KBTP 030156Z AUTO 33004KT 10SM CLR 21/12 A3005 RMK AO2 SLP174 T02110122 TSNO
Temperature: 21.1°C ( 70°F)
Dewpoint: 12.2°C ( 54°F) [RH = 57%]
Pressure (altimeter):30.05 inches Hg (1017.7 mb) [Sea level pressure: 1017.4 mb]
Winds:from the NNW (330 degrees) at 5 MPH (4 knots; 2.1 m/s)
Visibility:10 or more sm (16+ km)
Ceiling:at least 12,000 feet AGL
Clouds:sky clear below 12,000 feet AGL
QC Flag:automated observation with no human augmentation
Text:KBTP 030056Z AUTO 34005KT 10SM CLR 22/13 A3003 RMK AO2 SLP169 T02220133 TSNO
Temperature: 22.2°C ( 72°F)
Dewpoint: 13.3°C ( 56°F) [RH = 57%]
Pressure (altimeter):30.03 inches Hg (1017.0 mb) [Sea level pressure: 1016.9 mb]
Winds:from the NNW (340 degrees) at 6 MPH (5 knots; 2.6 m/s)
Visibility:10 or more sm (16+ km)
Ceiling:at least 12,000 feet AGL
Clouds:sky clear below 12,000 feet AGL
QC Flag:automated observation with no human augmentation